createdAt,value
2019-03-21T00:00:29.131Z,1029.44
2019-03-21T00:01:29.123Z,1029.46
2019-03-21T00:02:29.117Z,1029.53
2019-03-21T00:03:29.153Z,1029.51
2019-03-21T00:04:29.095Z,1029.51
2019-03-21T00:05:29.071Z,1029.52
2019-03-21T00:06:29.099Z,1029.53
2019-03-21T00:07:29.127Z,1029.55
2019-03-21T00:08:29.057Z,1029.59
2019-03-21T00:09:29.031Z,1029.59
2019-03-21T00:10:29.015Z,1029.60
2019-03-21T00:11:29.028Z,1029.61
2019-03-21T00:12:29.009Z,1029.59
2019-03-21T00:13:29.020Z,1029.53
2019-03-21T00:14:29.021Z,1029.63
2019-03-21T00:15:28.973Z,1029.62
2019-03-21T00:16:29.037Z,1029.60
2019-03-21T00:17:28.973Z,1029.61
2019-03-21T00:18:28.962Z,1029.54
2019-03-21T00:19:28.931Z,1029.59
2019-03-21T00:20:28.944Z,1029.53
2019-03-21T00:21:28.899Z,1029.60
2019-03-21T00:22:28.894Z,1029.51
2019-03-21T00:23:28.893Z,1029.52
2019-03-21T00:24:28.871Z,1029.54
2019-03-21T00:25:28.995Z,1029.52
2019-03-21T00:26:31.248Z,1029.52
2019-03-21T00:27:28.834Z,1029.56
2019-03-21T00:28:28.844Z,1029.60
2019-03-21T00:29:28.814Z,1029.57
2019-03-21T00:30:28.810Z,1029.56
2019-03-21T00:31:28.799Z,1029.63
2019-03-21T00:32:28.851Z,1029.65
2019-03-21T00:33:28.797Z,1029.63
2019-03-21T00:34:28.766Z,1029.71
2019-03-21T00:35:28.777Z,1029.67
2019-03-21T00:36:28.741Z,1029.62
2019-03-21T00:37:28.733Z,1029.64
2019-03-21T00:38:28.768Z,1029.64
2019-03-21T00:39:32.667Z,1029.64
2019-03-21T00:40:28.696Z,1029.69
2019-03-21T00:41:28.683Z,1029.68
2019-03-21T00:42:28.694Z,1029.73
2019-03-21T00:43:28.664Z,1029.63
2019-03-21T00:44:28.674Z,1029.67
2019-03-21T00:45:28.659Z,1029.71
2019-03-21T00:46:28.645Z,1029.61
2019-03-21T00:47:28.618Z,1029.65
2019-03-21T00:48:28.630Z,1029.65
2019-03-21T00:49:28.606Z,1029.66
2019-03-21T00:50:28.598Z,1029.70
2019-03-21T00:51:28.594Z,1029.67
2019-03-21T00:52:28.571Z,1029.64
2019-03-21T00:53:28.566Z,1029.72
2019-03-21T00:54:28.563Z,1029.66
2019-03-21T00:55:28.528Z,1029.63
2019-03-21T00:56:28.528Z,1029.66
2019-03-21T00:57:28.531Z,1029.67
2019-03-21T00:58:28.563Z,1029.66
2019-03-21T00:59:28.546Z,1029.60
2019-03-21T01:00:28.487Z,1029.56
2019-03-21T01:01:28.495Z,1029.59
2019-03-21T01:02:28.516Z,1029.65
2019-03-21T01:03:28.516Z,1029.62
2019-03-21T01:04:28.476Z,1029.61
2019-03-21T01:05:28.440Z,1029.61
2019-03-21T01:06:28.436Z,1029.57
2019-03-21T01:07:28.408Z,1029.58
2019-03-21T01:08:28.409Z,1029.55
2019-03-21T01:09:28.404Z,1029.50
2019-03-21T01:10:28.378Z,1029.49
2019-03-21T01:11:28.411Z,1029.46
2019-03-21T01:12:28.376Z,1029.44
2019-03-21T01:13:28.337Z,1029.47
2019-03-21T01:14:29.951Z,1029.43
2019-03-21T01:15:28.392Z,1029.42
2019-03-21T01:16:28.313Z,1029.48
2019-03-21T01:17:28.314Z,1029.48
2019-03-21T01:18:28.287Z,1029.53
2019-03-21T01:19:28.342Z,1029.57
2019-03-21T01:20:28.273Z,1029.52
2019-03-21T01:21:28.257Z,1029.52
2019-03-21T01:22:28.253Z,1029.54
2019-03-21T01:23:28.261Z,1029.49
2019-03-21T01:24:28.271Z,1029.52
2019-03-21T01:25:28.207Z,1029.56
2019-03-21T01:26:28.205Z,1029.52
2019-03-21T01:27:28.208Z,1029.50
2019-03-21T01:28:28.197Z,1029.48
2019-03-21T01:29:28.163Z,1029.49
2019-03-21T01:30:28.169Z,1029.49
2019-03-21T01:31:28.153Z,1029.49
2019-03-21T01:32:28.133Z,1029.51
2019-03-21T01:33:28.125Z,1029.44
2019-03-21T01:34:28.170Z,1029.45
2019-03-21T01:35:28.119Z,1029.44
2019-03-21T01:36:28.087Z,1029.41
2019-03-21T01:37:28.087Z,1029.46
2019-03-21T01:38:28.108Z,1029.42
2019-03-21T01:39:28.071Z,1029.38
2019-03-21T01:40:28.076Z,1029.39
2019-03-21T01:41:28.039Z,1029.35
2019-03-21T01:42:28.021Z,1029.40
2019-03-21T01:43:28.009Z,1029.36
2019-03-21T01:44:28.049Z,1029.32
2019-03-21T01:45:28.007Z,1029.26
2019-03-21T01:46:28.017Z,1029.30
2019-03-21T01:47:27.971Z,1029.33
2019-03-21T01:48:28.049Z,1029.34
2019-03-21T01:49:27.977Z,1029.30
2019-03-21T01:50:27.954Z,1029.37
2019-03-21T01:51:27.929Z,1029.33
2019-03-21T01:52:27.921Z,1029.36
2019-03-21T01:53:27.908Z,1029.32
2019-03-21T01:54:27.967Z,1029.38
2019-03-21T01:55:27.907Z,1029.32
2019-03-21T01:56:27.876Z,1029.29
2019-03-21T01:57:27.881Z,1029.34
2019-03-21T01:58:27.879Z,1029.30
2019-03-21T01:59:27.841Z,1029.30
2019-03-21T02:00:27.867Z,1029.32
2019-03-21T02:01:27.817Z,1029.28
2019-03-21T02:02:27.806Z,1029.29
2019-03-21T02:03:27.803Z,1029.27
2019-03-21T02:04:27.795Z,1029.23
2019-03-21T02:05:27.792Z,1029.18
2019-03-21T02:06:27.824Z,1029.23
2019-03-21T02:07:27.760Z,1029.19
2019-03-21T02:08:27.756Z,1029.21
2019-03-21T02:09:27.738Z,1029.25
2019-03-21T02:10:27.732Z,1029.19
2019-03-21T02:11:27.712Z,1029.22
2019-03-21T02:12:27.696Z,1029.17
2019-03-21T02:13:27.688Z,1029.12
2019-03-21T02:14:27.690Z,1029.21
2019-03-21T02:15:27.676Z,1029.13
2019-03-21T02:16:27.656Z,1029.12
2019-03-21T02:17:27.696Z,1029.07
2019-03-21T02:18:27.636Z,1029.11
2019-03-21T02:19:27.678Z,1029.09
2019-03-21T02:20:27.656Z,1029.05
2019-03-21T02:21:27.600Z,1029.07
2019-03-21T02:22:27.594Z,1029.05
2019-03-21T02:23:27.580Z,1029.04
2019-03-21T02:24:27.586Z,1029.11
2019-03-21T02:25:27.576Z,1029.11
2019-03-21T02:26:27.560Z,1029.13
2019-03-21T02:27:27.642Z,1029.07
2019-03-21T02:28:27.524Z,1029.07
2019-03-21T02:29:27.521Z,1029.10
2019-03-21T02:30:27.513Z,1029.08
2019-03-21T02:31:27.522Z,1029.13
2019-03-21T02:32:27.491Z,1029.08
2019-03-21T02:33:27.483Z,1029.06
2019-03-21T02:34:27.485Z,1029.11
2019-03-21T02:35:30.812Z,1029.11
2019-03-21T02:36:27.482Z,1029.05
2019-03-21T02:37:27.451Z,1029.03
2019-03-21T02:38:27.425Z,1028.99
2019-03-21T02:39:27.421Z,1028.99
2019-03-21T02:40:27.404Z,1029.02
2019-03-21T02:41:27.404Z,1028.98
2019-03-21T02:42:27.411Z,1029.00
2019-03-21T02:43:27.365Z,1029.05
2019-03-21T02:44:27.356Z,1029.02
2019-03-21T02:45:27.341Z,1029.10
2019-03-21T02:46:27.346Z,1029.04
2019-03-21T02:47:27.324Z,1029.03
2019-03-21T02:48:27.319Z,1029.01
2019-03-21T02:49:27.310Z,1028.99
2019-03-21T02:50:27.286Z,1028.94
2019-03-21T02:51:27.300Z,1029.00
2019-03-21T02:52:27.272Z,1029.05
2019-03-21T02:53:27.259Z,1029.02
2019-03-21T02:54:27.271Z,1029.01
2019-03-21T02:55:27.242Z,1029.02
2019-03-21T02:56:27.253Z,1029.04
2019-03-21T02:57:27.219Z,1029.02
2019-03-21T02:58:27.221Z,1028.99
2019-03-21T02:59:27.245Z,1029.05
2019-03-21T03:00:27.188Z,1029.06
2019-03-21T03:01:27.218Z,1029.05
2019-03-21T03:02:27.212Z,1029.03
2019-03-21T03:03:27.153Z,1029.07
2019-03-21T03:04:27.147Z,1029.09
2019-03-21T03:05:27.134Z,1029.15
2019-03-21T03:06:27.159Z,1029.12
2019-03-21T03:07:27.115Z,1029.11
2019-03-21T03:08:27.121Z,1029.13
2019-03-21T03:09:27.110Z,1029.10
2019-03-21T03:10:27.075Z,1029.13
2019-03-21T03:11:27.070Z,1029.13
2019-03-21T03:12:27.074Z,1029.11
2019-03-21T03:13:27.051Z,1029.15
2019-03-21T03:14:27.041Z,1029.15
2019-03-21T03:15:27.054Z,1029.16
2019-03-21T03:16:27.011Z,1029.12
2019-03-21T03:17:27.023Z,1029.12
2019-03-21T03:18:26.995Z,1029.20
2019-03-21T03:19:26.978Z,1029.19
2019-03-21T03:20:26.972Z,1029.21
2019-03-21T03:21:26.994Z,1029.12
2019-03-21T03:22:26.977Z,1029.24
2019-03-21T03:23:26.934Z,1029.22
2019-03-21T03:24:26.944Z,1029.22
2019-03-21T03:25:26.913Z,1029.17
2019-03-21T03:26:26.902Z,1029.19
2019-03-21T03:27:26.944Z,1029.21
2019-03-21T03:28:26.884Z,1029.27
2019-03-21T03:29:26.879Z,1029.16
2019-03-21T03:30:26.870Z,1029.17
2019-03-21T03:31:26.879Z,1029.13
2019-03-21T03:32:26.865Z,1029.18
2019-03-21T03:33:26.849Z,1029.22
2019-03-21T03:34:26.825Z,1029.25
2019-03-21T03:35:26.826Z,1029.14
2019-03-21T03:36:26.815Z,1029.15
2019-03-21T03:37:26.800Z,1029.22
2019-03-21T03:38:26.772Z,1029.20
2019-03-21T03:39:26.767Z,1029.23
2019-03-21T03:40:26.757Z,1029.16
2019-03-21T03:41:26.747Z,1029.17
2019-03-21T03:42:26.808Z,1029.24
2019-03-21T03:43:26.746Z,1029.24
2019-03-21T03:44:26.721Z,1029.16
2019-03-21T03:45:37.290Z,1029.16
2019-03-21T03:46:27.705Z,1029.16
2019-03-21T03:47:26.722Z,1029.18
2019-03-21T03:48:26.690Z,1029.12
2019-03-21T03:49:26.658Z,1029.16
2019-03-21T03:50:26.653Z,1029.08
2019-03-21T03:51:26.644Z,1029.14
2019-03-21T03:52:26.666Z,1029.16
2019-03-21T03:53:26.630Z,1029.16
2019-03-21T03:54:26.608Z,1029.22
2019-03-21T03:55:26.598Z,1029.17
2019-03-21T03:56:26.590Z,1029.19
2019-03-21T03:57:26.573Z,1029.25
2019-03-21T03:58:26.586Z,1029.23
2019-03-21T03:59:26.549Z,1029.27
2019-03-21T04:00:26.616Z,1029.27
2019-03-21T04:01:26.534Z,1029.27
2019-03-21T04:02:26.518Z,1029.22
2019-03-21T04:03:26.588Z,1029.28
2019-03-21T04:04:26.495Z,1029.26
2019-03-21T04:05:26.500Z,1029.19
2019-03-21T04:06:26.499Z,1029.26
2019-03-21T04:07:26.472Z,1029.26
2019-03-21T04:08:26.473Z,1029.25
2019-03-21T04:09:26.452Z,1029.18
2019-03-21T04:10:26.435Z,1029.20
2019-03-21T04:11:26.428Z,1029.24
2019-03-21T04:12:26.455Z,1029.28
2019-03-21T04:13:26.422Z,1029.24
2019-03-21T04:14:26.403Z,1029.21
2019-03-21T04:15:26.382Z,1029.26
2019-03-21T04:16:26.383Z,1029.23
2019-03-21T04:17:26.362Z,1029.29
2019-03-21T04:18:26.380Z,1029.36
2019-03-21T04:19:26.349Z,1029.34
2019-03-21T04:20:26.339Z,1029.35
2019-03-21T04:21:26.313Z,1029.30
2019-03-21T04:22:26.306Z,1029.34
2019-03-21T04:23:26.313Z,1029.32
2019-03-21T04:24:26.292Z,1029.33
2019-03-21T04:25:26.288Z,1029.29
2019-03-21T04:26:26.280Z,1029.36
2019-03-21T04:27:26.257Z,1029.32
2019-03-21T04:28:26.250Z,1029.30
2019-03-21T04:29:26.237Z,1029.32
2019-03-21T04:30:26.217Z,1029.31
2019-03-21T04:31:26.218Z,1029.32
2019-03-21T04:32:26.204Z,1029.33
2019-03-21T04:33:26.217Z,1029.36
2019-03-21T04:34:26.181Z,1029.31
2019-03-21T04:35:26.167Z,1029.36
2019-03-21T04:36:26.151Z,1029.39
2019-03-21T04:37:26.176Z,1029.38
2019-03-21T04:38:26.133Z,1029.30
2019-03-21T04:39:26.135Z,1029.37
2019-03-21T04:40:26.111Z,1029.35
2019-03-21T04:41:26.109Z,1029.30
2019-03-21T04:42:26.088Z,1029.33
2019-03-21T04:43:26.087Z,1029.30
2019-03-21T04:44:26.098Z,1029.29
2019-03-21T04:45:26.065Z,1029.32
2019-03-21T04:46:26.046Z,1029.35
2019-03-21T04:47:26.039Z,1029.35
2019-03-21T04:48:26.022Z,1029.34
2019-03-21T04:49:26.027Z,1029.30
2019-03-21T04:50:26.044Z,1029.38
2019-03-21T04:51:26.001Z,1029.40
2019-03-21T04:52:26.041Z,1029.42
2019-03-21T04:53:26.002Z,1029.43
2019-03-21T04:54:25.975Z,1029.37
2019-03-21T04:55:25.956Z,1029.40
2019-03-21T04:56:25.943Z,1029.36
2019-03-21T04:57:25.954Z,1029.42
2019-03-21T04:58:25.921Z,1029.41
2019-03-21T04:59:25.925Z,1029.37
2019-03-21T05:00:25.894Z,1029.45
2019-03-21T05:01:25.890Z,1029.37
2019-03-21T05:02:25.890Z,1029.40
2019-03-21T05:03:25.902Z,1029.39
2019-03-21T05:04:25.946Z,1029.38
2019-03-21T05:05:25.846Z,1029.44
2019-03-21T05:06:25.854Z,1029.35
2019-03-21T05:07:25.821Z,1029.34
2019-03-21T05:08:25.812Z,1029.35
2019-03-21T05:09:25.809Z,1029.39
2019-03-21T05:10:25.790Z,1029.40
2019-03-21T05:11:25.809Z,1029.41
2019-03-21T05:12:25.768Z,1029.44
2019-03-21T05:13:25.752Z,1029.38
2019-03-21T05:14:25.758Z,1029.42
2019-03-21T05:15:25.734Z,1029.39
2019-03-21T05:16:25.728Z,1029.45
2019-03-21T05:17:25.732Z,1029.44
2019-03-21T05:18:25.710Z,1029.43
2019-03-21T05:19:25.704Z,1029.44
2019-03-21T05:20:25.682Z,1029.49
2019-03-21T05:21:25.671Z,1029.40
2019-03-21T05:22:25.659Z,1029.44
2019-03-21T05:23:25.662Z,1029.45
2019-03-21T05:24:25.653Z,1029.39
2019-03-21T05:25:25.629Z,1029.41
2019-03-21T05:26:25.619Z,1029.39
2019-03-21T05:27:25.607Z,1029.35
2019-03-21T05:28:25.607Z,1029.33
2019-03-21T05:29:25.620Z,1029.38
2019-03-21T05:30:25.616Z,1029.35
2019-03-21T05:31:25.568Z,1029.35
2019-03-21T05:32:25.556Z,1029.35
2019-03-21T05:33:25.537Z,1029.37
2019-03-21T05:34:25.530Z,1029.35
2019-03-21T05:35:25.533Z,1029.41
2019-03-21T05:36:25.515Z,1029.36
2019-03-21T05:37:25.521Z,1029.39
2019-03-21T05:38:25.491Z,1029.37
2019-03-21T05:39:25.484Z,1029.44
2019-03-21T05:40:25.479Z,1029.47
2019-03-21T05:41:25.459Z,1029.41
2019-03-21T05:42:25.445Z,1029.39
2019-03-21T05:43:25.459Z,1029.45
2019-03-21T05:44:25.458Z,1029.38
2019-03-21T05:45:25.427Z,1029.44
2019-03-21T05:46:26.884Z,1029.38
2019-03-21T05:47:25.413Z,1029.43
2019-03-21T05:48:25.385Z,1029.41
2019-03-21T05:49:25.379Z,1029.46
2019-03-21T05:50:25.423Z,1029.51
2019-03-21T05:51:25.369Z,1029.46
2019-03-21T05:52:25.333Z,1029.45
2019-03-21T05:53:25.325Z,1029.49
2019-03-21T05:54:25.325Z,1029.47
2019-03-21T05:55:26.789Z,1029.50
2019-03-21T05:56:25.295Z,1029.51
2019-03-21T05:57:25.293Z,1029.53
2019-03-21T05:58:25.303Z,1029.52
2019-03-21T05:59:25.262Z,1029.49
2019-03-21T06:00:25.269Z,1029.49
2019-03-21T06:01:25.255Z,1029.46
2019-03-21T06:02:25.231Z,1029.51
2019-03-21T06:03:25.227Z,1029.52
2019-03-21T06:04:25.271Z,1029.49
2019-03-21T06:05:25.214Z,1029.56
2019-03-21T06:06:25.191Z,1029.52
2019-03-21T06:07:25.191Z,1029.55
2019-03-21T06:08:25.181Z,1029.55
2019-03-21T06:09:25.155Z,1029.56
2019-03-21T06:10:25.158Z,1029.63
2019-03-21T06:11:25.162Z,1029.62
2019-03-21T06:12:25.137Z,1029.65
2019-03-21T06:13:25.114Z,1029.67
2019-03-21T06:14:25.114Z,1029.63
2019-03-21T06:15:25.106Z,1029.63
2019-03-21T06:16:25.091Z,1029.61
2019-03-21T06:22:13.388Z,1029.74
2019-03-21T06:26:31.516Z,1029.72
2019-03-21T06:27:14.474Z,1029.74
2019-03-21T06:28:09.533Z,1029.71
2019-03-21T06:29:08.426Z,1029.79
2019-03-21T06:30:08.402Z,1029.82
2019-03-21T06:31:08.414Z,1029.83
2019-03-21T06:32:08.383Z,1029.83
2019-03-21T06:33:08.384Z,1029.82
2019-03-21T06:34:08.355Z,1029.82
2019-03-21T06:35:08.348Z,1029.89
2019-03-21T06:36:08.361Z,1029.87
2019-03-21T06:37:08.326Z,1029.87
2019-03-21T06:38:08.322Z,1029.87
2019-03-21T06:39:08.302Z,1029.87
2019-03-21T06:40:08.294Z,1029.98
2019-03-21T06:41:08.292Z,1029.98
2019-03-21T06:42:08.280Z,1029.98
2019-03-21T06:43:08.288Z,1029.95
2019-03-21T06:44:08.252Z,1029.98
2019-03-21T06:45:08.240Z,1030.01
2019-03-21T06:46:08.240Z,1029.99
2019-03-21T06:47:08.218Z,1030.02
2019-03-21T06:48:08.211Z,1029.98
2019-03-21T06:49:08.195Z,1030.00
2019-03-21T06:50:08.186Z,1029.98
2019-03-21T06:51:08.180Z,1029.99
2019-03-21T06:52:08.166Z,1029.98
2019-03-21T06:53:08.151Z,1029.99
2019-03-21T06:54:08.143Z,1029.98
2019-03-21T06:55:08.130Z,1030.06
2019-03-21T06:56:08.148Z,1029.95
2019-03-21T06:57:08.112Z,1030.03
2019-03-21T06:58:08.103Z,1030.01
2019-03-21T06:59:08.085Z,1030.07
2019-03-21T07:00:08.078Z,1030.05
2019-03-21T07:01:08.066Z,1030.07
2019-03-21T07:02:08.073Z,1030.10
2019-03-21T07:03:08.046Z,1030.06
2019-03-21T07:04:08.056Z,1030.06
2019-03-21T07:05:08.037Z,1030.18
2019-03-21T07:06:08.013Z,1030.14
2019-03-21T07:07:08.766Z,1030.16
2019-03-21T07:08:07.989Z,1030.19
2019-03-21T07:09:08.008Z,1030.18
2019-03-21T07:10:07.970Z,1030.26
2019-03-21T07:11:07.970Z,1030.24
2019-03-21T07:12:07.971Z,1030.17
2019-03-21T07:13:07.935Z,1030.16
2019-03-21T07:14:07.923Z,1030.30
2019-03-21T07:15:07.911Z,1030.32
2019-03-21T07:16:09.430Z,1030.27
2019-03-21T07:17:07.919Z,1030.34
2019-03-21T07:18:07.887Z,1030.29
2019-03-21T07:19:07.874Z,1030.29
2019-03-21T07:20:07.861Z,1030.34
2019-03-21T07:21:07.849Z,1030.36
2019-03-21T07:22:07.858Z,1030.33
2019-03-21T07:23:07.851Z,1030.32
2019-03-21T07:24:07.825Z,1030.32
2019-03-21T07:25:07.819Z,1030.32
2019-03-21T07:26:07.795Z,1030.35
2019-03-21T07:27:07.799Z,1030.37
2019-03-21T07:28:07.776Z,1030.36
2019-03-21T07:29:07.765Z,1030.37
2019-03-21T07:30:07.753Z,1030.36
2019-03-21T07:31:07.748Z,1030.38
2019-03-21T07:32:07.745Z,1030.34
2019-03-21T07:33:07.726Z,1030.38
2019-03-21T07:34:10.082Z,1030.35
2019-03-21T07:35:07.697Z,1030.32
2019-03-21T07:36:07.689Z,1030.37
2019-03-21T07:37:07.725Z,1030.36
2019-03-21T07:38:07.669Z,1030.43
2019-03-21T07:39:07.655Z,1030.31
2019-03-21T07:40:07.646Z,1030.42
2019-03-21T07:41:07.646Z,1030.38
2019-03-21T07:42:07.623Z,1030.41
2019-03-21T07:43:07.633Z,1030.43
2019-03-21T07:44:07.631Z,1030.46
2019-03-21T07:45:07.604Z,1030.46
2019-03-21T07:46:07.579Z,1030.51
2019-03-21T07:47:12.888Z,1030.48
2019-03-21T07:48:08.583Z,1030.52
2019-03-21T07:49:07.544Z,1030.50
2019-03-21T07:50:07.566Z,1030.47
2019-03-21T07:51:07.530Z,1030.52
2019-03-21T07:52:07.524Z,1030.48
2019-03-21T07:53:07.530Z,1030.48
2019-03-21T07:54:07.504Z,1030.53
2019-03-21T07:55:07.492Z,1030.56
2019-03-21T07:56:07.499Z,1030.55
2019-03-21T07:57:07.469Z,1030.60
2019-03-21T07:58:07.488Z,1030.55
2019-03-21T07:59:07.445Z,1030.57
2019-03-21T08:00:07.443Z,1030.58
2019-03-21T08:01:07.440Z,1030.56
2019-03-21T08:02:07.413Z,1030.55
2019-03-21T08:03:07.412Z,1030.55
2019-03-21T08:04:07.400Z,1030.56
2019-03-21T08:05:07.375Z,1030.49
2019-03-21T08:06:07.370Z,1030.50
2019-03-21T08:07:07.355Z,1030.53
2019-03-21T08:08:07.356Z,1030.52
2019-03-21T08:09:07.350Z,1030.54
2019-03-21T08:10:07.334Z,1030.50
2019-03-21T08:11:07.312Z,1030.48
2019-03-21T08:12:07.302Z,1030.51
2019-03-21T08:13:07.304Z,1030.45
2019-03-21T08:14:07.287Z,1030.51
2019-03-21T08:15:07.293Z,1030.50
2019-03-21T08:16:07.261Z,1030.52
2019-03-21T08:17:07.250Z,1030.50
2019-03-21T08:18:07.256Z,1030.48
2019-03-21T08:19:07.223Z,1030.48
2019-03-21T08:20:07.216Z,1030.42
2019-03-21T08:21:07.210Z,1030.52
2019-03-21T08:22:07.343Z,1030.51
2019-03-21T08:23:07.214Z,1030.60
2019-03-21T08:24:07.186Z,1030.57
2019-03-21T08:25:07.163Z,1030.59
2019-03-21T08:26:07.157Z,1030.57
2019-03-21T08:27:07.151Z,1030.57
2019-03-21T08:28:07.194Z,1030.65
2019-03-21T08:29:07.126Z,1030.65
2019-03-21T08:30:07.111Z,1030.66
2019-03-21T08:31:07.099Z,1030.64
2019-03-21T08:32:07.087Z,1030.67
2019-03-21T08:33:07.071Z,1030.64
2019-03-21T08:34:07.087Z,1030.69
2019-03-21T08:35:07.120Z,1030.73
2019-03-21T08:36:07.053Z,1030.73
2019-03-21T08:37:07.031Z,1030.73
2019-03-21T08:38:07.034Z,1030.70
2019-03-21T08:39:07.026Z,1030.67
2019-03-21T08:40:07.007Z,1030.71
2019-03-21T08:41:07.007Z,1030.73
2019-03-21T08:42:06.978Z,1030.62
2019-03-21T08:43:06.966Z,1030.69
2019-03-21T08:44:06.985Z,1030.69
2019-03-21T08:45:06.988Z,1030.64
2019-03-21T08:46:06.941Z,1030.69
2019-03-21T08:47:06.935Z,1030.68
2019-03-21T08:48:06.917Z,1030.67
2019-03-21T08:49:06.931Z,1030.64
2019-03-21T08:50:06.905Z,1030.71
2019-03-21T08:51:08.731Z,1030.73
2019-03-21T08:52:06.882Z,1030.68
2019-03-21T08:53:06.860Z,1030.79
2019-03-21T08:54:06.863Z,1030.78
2019-03-21T08:55:06.851Z,1030.77
2019-03-21T08:56:06.825Z,1030.72
2019-03-21T08:57:06.817Z,1030.72
2019-03-21T08:58:06.806Z,1030.78
2019-03-21T08:59:06.816Z,1030.74
2019-03-21T09:00:06.792Z,1030.85
2019-03-21T09:01:06.785Z,1030.78
2019-03-21T09:02:06.758Z,1030.73
2019-03-21T09:03:06.749Z,1030.78
2019-03-21T09:04:06.751Z,1030.85
2019-03-21T09:05:06.728Z,1030.78
2019-03-21T09:06:06.717Z,1030.89
2019-03-21T09:07:06.713Z,1030.84
2019-03-21T09:08:06.754Z,1030.89
2019-03-21T09:09:06.702Z,1030.82
2019-03-21T09:10:07.990Z,1030.85
2019-03-21T09:11:06.671Z,1030.84
2019-03-21T09:12:06.680Z,1030.84
2019-03-21T09:13:06.653Z,1030.86
2019-03-21T09:14:06.647Z,1030.81
2019-03-21T09:15:08.082Z,1030.79
2019-03-21T09:16:06.624Z,1030.81
2019-03-21T09:17:06.609Z,1030.77
2019-03-21T09:18:06.593Z,1030.76
2019-03-21T09:19:06.629Z,1030.81
2019-03-21T09:20:06.570Z,1030.84
2019-03-21T09:21:06.567Z,1030.81
2019-03-21T09:22:06.568Z,1030.82
2019-03-21T09:23:06.537Z,1030.84
2019-03-21T09:24:06.522Z,1030.81
2019-03-21T09:25:06.530Z,1030.80
2019-03-21T09:26:06.504Z,1030.77
2019-03-21T09:27:06.502Z,1030.81
2019-03-21T09:28:06.483Z,1030.80
2019-03-21T09:29:06.492Z,1030.78
2019-03-21T09:30:06.489Z,1030.81
2019-03-21T09:31:06.464Z,1030.84
2019-03-21T09:32:06.470Z,1030.84
2019-03-21T09:33:06.434Z,1030.82
2019-03-21T09:34:06.416Z,1030.81
2019-03-21T09:35:06.423Z,1030.85
2019-03-21T09:36:06.442Z,1030.80
2019-03-21T09:37:06.392Z,1030.82
2019-03-21T09:38:06.387Z,1030.85
2019-03-21T09:39:06.359Z,1030.87
2019-03-21T09:40:06.389Z,1030.84
2019-03-21T09:41:06.351Z,1030.81
2019-03-21T09:42:06.342Z,1030.84
2019-03-21T09:43:06.319Z,1030.79
2019-03-21T09:44:06.321Z,1030.81
2019-03-21T09:45:06.316Z,1030.78
2019-03-21T09:46:06.301Z,1030.79
2019-03-21T09:47:06.330Z,1030.80
2019-03-21T09:48:06.268Z,1030.76
2019-03-21T09:49:06.261Z,1030.78
2019-03-21T09:50:06.270Z,1030.72
2019-03-21T09:51:06.233Z,1030.74
2019-03-21T09:52:06.224Z,1030.73
2019-03-21T09:53:06.301Z,1030.71
2019-03-21T09:54:09.934Z,1030.71
2019-03-21T09:55:06.205Z,1030.69
2019-03-21T09:56:06.188Z,1030.69
2019-03-21T09:57:06.255Z,1030.73
2019-03-21T09:58:06.162Z,1030.79
2019-03-21T09:59:06.159Z,1030.74
2019-03-21T10:00:06.201Z,1030.68
2019-03-21T10:01:06.141Z,1030.73
2019-03-21T10:02:06.123Z,1030.73
2019-03-21T10:03:06.121Z,1030.72
2019-03-21T10:04:06.098Z,1030.67
2019-03-21T10:05:06.096Z,1030.67
2019-03-21T10:06:06.075Z,1030.65
2019-03-21T10:07:06.068Z,1030.65
2019-03-21T10:08:06.049Z,1030.67
2019-03-21T10:09:06.058Z,1030.61
2019-03-21T10:10:06.077Z,1030.68
2019-03-21T10:11:06.023Z,1030.77
2019-03-21T10:12:06.023Z,1030.67
2019-03-21T10:13:06.030Z,1030.69
2019-03-21T10:14:05.986Z,1030.69
2019-03-21T10:15:05.986Z,1030.75
2019-03-21T10:16:05.990Z,1030.72
2019-03-21T10:17:05.957Z,1030.70
2019-03-21T10:18:05.964Z,1030.72
2019-03-21T10:19:05.941Z,1030.74
2019-03-21T10:20:05.929Z,1030.71
2019-03-21T10:21:05.941Z,1030.73
2019-03-21T10:22:05.922Z,1030.71
2019-03-21T10:23:05.900Z,1030.61
2019-03-21T10:24:05.892Z,1030.68
2019-03-21T10:25:05.873Z,1030.69
2019-03-21T10:26:05.889Z,1030.73
2019-03-21T10:27:05.847Z,1030.77
2019-03-21T10:28:05.872Z,1030.67
2019-03-21T10:29:05.825Z,1030.74
2019-03-21T10:30:05.818Z,1030.71
2019-03-21T10:31:05.826Z,1030.78
2019-03-21T10:32:13.965Z,1030.74
2019-03-21T10:33:06.782Z,1030.81
2019-03-21T10:34:05.775Z,1030.78
2019-03-21T10:35:05.770Z,1030.76
2019-03-21T10:36:05.770Z,1030.76
2019-03-21T10:37:05.759Z,1030.73
2019-03-21T10:38:05.732Z,1030.72
2019-03-21T10:39:05.727Z,1030.75
2019-03-21T10:40:05.715Z,1030.68
2019-03-21T10:41:05.706Z,1030.74
2019-03-21T10:42:05.697Z,1030.71
2019-03-21T10:43:05.740Z,1030.77
2019-03-21T10:44:05.666Z,1030.77
2019-03-21T10:45:05.656Z,1030.80
2019-03-21T10:46:05.657Z,1030.76
2019-03-21T10:47:05.667Z,1030.65
2019-03-21T10:48:05.626Z,1030.71
2019-03-21T10:49:05.616Z,1030.67
2019-03-21T10:50:05.639Z,1030.70
2019-03-21T10:51:05.604Z,1030.68
2019-03-21T10:52:05.590Z,1030.71
2019-03-21T10:53:05.568Z,1030.75
2019-03-21T10:54:05.557Z,1030.67
2019-03-21T10:55:05.548Z,1030.71
2019-03-21T10:56:05.592Z,1030.63
2019-03-21T10:57:05.526Z,1030.64
2019-03-21T10:58:05.522Z,1030.67
2019-03-21T10:59:05.509Z,1030.60
2019-03-21T11:00:05.491Z,1030.60
2019-03-21T11:01:05.483Z,1030.64
2019-03-21T11:02:07.596Z,1030.70
2019-03-21T11:03:05.460Z,1030.66
2019-03-21T11:04:05.461Z,1030.61
2019-03-21T11:05:05.439Z,1030.60
2019-03-21T11:06:05.436Z,1030.61
2019-03-21T11:07:05.438Z,1030.61
2019-03-21T11:08:05.454Z,1030.63
2019-03-21T11:09:05.396Z,1030.68
2019-03-21T11:10:05.388Z,1030.62
2019-03-21T11:11:05.372Z,1030.66
2019-03-21T11:12:05.392Z,1030.59
2019-03-21T11:13:05.352Z,1030.60
2019-03-21T11:14:05.343Z,1030.61
2019-03-21T11:15:05.330Z,1030.57
2019-03-21T11:16:05.320Z,1030.52
2019-03-21T11:17:05.325Z,1030.57
2019-03-21T11:18:05.302Z,1030.54
2019-03-21T11:19:05.292Z,1030.57
2019-03-21T11:20:05.286Z,1030.53
2019-03-21T11:21:05.278Z,1030.51
2019-03-21T11:22:06.639Z,1030.51
2019-03-21T11:23:05.249Z,1030.56
2019-03-21T11:24:05.237Z,1030.53
2019-03-21T11:25:05.246Z,1030.49
2019-03-21T11:26:05.213Z,1030.46
2019-03-21T11:27:05.223Z,1030.47
2019-03-21T11:28:05.194Z,1030.55
2019-03-21T11:29:05.177Z,1030.48
2019-03-21T11:30:15.611Z,1030.48
2019-03-21T11:31:06.229Z,1030.45
2019-03-21T11:32:05.162Z,1030.37
2019-03-21T11:33:05.135Z,1030.33
2019-03-21T11:34:05.192Z,1030.39
2019-03-21T11:35:05.118Z,1030.42
2019-03-21T11:36:05.111Z,1030.40
2019-03-21T11:37:05.114Z,1030.38
2019-03-21T11:38:05.091Z,1030.39
2019-03-21T11:39:05.075Z,1030.40
2019-03-21T11:40:05.067Z,1030.33
2019-03-21T11:41:05.065Z,1030.39
2019-03-21T11:42:05.067Z,1030.32
2019-03-21T11:43:05.031Z,1030.35
2019-03-21T11:44:05.038Z,1030.31
2019-03-21T11:45:05.007Z,1030.36
2019-03-21T11:46:04.996Z,1030.32
2019-03-21T11:47:04.998Z,1030.32
2019-03-21T11:48:04.974Z,1030.34
2019-03-21T11:49:04.972Z,1030.36
2019-03-21T11:50:04.969Z,1030.35
2019-03-21T11:51:05.010Z,1030.40
2019-03-21T11:52:04.957Z,1030.38
2019-03-21T11:53:04.936Z,1030.37
2019-03-21T11:54:04.928Z,1030.36
2019-03-21T11:55:04.913Z,1030.36
2019-03-21T11:56:04.910Z,1030.36
2019-03-21T11:57:04.909Z,1030.39
2019-03-21T11:58:04.884Z,1030.33
2019-03-21T11:59:04.892Z,1030.33
2019-03-21T12:00:04.854Z,1030.31
2019-03-21T12:01:04.855Z,1030.29
2019-03-21T12:02:04.830Z,1030.36
2019-03-21T12:03:04.892Z,1030.24
2019-03-21T12:04:04.816Z,1030.25
2019-03-21T12:05:04.795Z,1030.35
2019-03-21T12:06:04.790Z,1030.32
2019-03-21T12:07:04.780Z,1030.25
2019-03-21T12:08:04.783Z,1030.30
2019-03-21T12:09:04.763Z,1030.30
2019-03-21T12:10:04.755Z,1030.34
2019-03-21T12:11:04.734Z,1030.31
2019-03-21T12:12:04.718Z,1030.30
2019-03-21T12:13:04.782Z,1030.26